Basye, VA

01:46 AM EST 2017 otsaila ren 25 an (GMT -0500)
Bryce - Lake Laura | | Change Station

Elev 1401 ft 38.80 °N, 78.79 °W | Updated 1 minute ago

Goraki estalia
Goraki estalia
54.7 °F
Feels Like 54.7 °F
N
0.0
Haizea Aldagarria Haizea from Iparralde

Gaur
High -- | Low -- °F
--% Chance of Precip.
Yesterday
High -- | Low -- °F
Precip. -- in
Presioa 29.74 in
Ikusgaitasuna 10.0 Miliak
Clouds Goraki estalia 6000 ft
Ihintzaren maila 54 °F
Afoinua 98%
Rainfall 0.00 in
Snow Depth Not available.
6:52 AM 6:04 PM
Waning Crescent, 2% visible
METAR KLUA 250635Z AUTO 22004KT 10SM BKN060 16/12 A2974 RMK AO2
Presioa 29.74 in
Ikusgaitasuna 10.0 Miliak
Clouds Goraki estalia 6000 ft
Ihintzaren maila 54 °F
Afoinua 98%
Rainfall 0.00 in
Snow Depth Not available.
6:52 AM 6:04 PM
Waning Crescent, 2% visible
METAR KLUA 250635Z AUTO 22004KT 10SM BKN060 16/12 A2974 RMK AO2

Get Your Daily Forecast Email!

Thanks for signing up!

Be on the lookout for a verification email in your inbox.

You'll start receiving the daily forecast at 8 AM.

×

10-Day Weather Forecast

Almanac

Astronomy

Feb. 25, 2017 Rise Set
Actual Time
Civil Twilight
Nautical Twilight
Astronomical Twilight
Moon
Length Of Visible Light
Length of Day
Tomorrow will be .
, % of the Moon is Illuminated

Today's Extremes

State Highs State Lows

Community

WunderPhotos

Upload Photos

1,962,540 photos uploaded!

WunderBlog® & News

Nearby

Air Quality

  Air Quality AQ Index Pollutant
Not available.

Snow Depth

Station Depth Elevation

Earthquake Activity

City Distance Mag. Time & Date
Minimum magnitude displayed is 2.5.

Coastal Water Temperatures

Lekua Tenperatura

Stations

Nearby Weather Stations

Station Location Temp Izozki haizeak Ihintzaren maila Afoinua Haizea Precip. Elev Eguneratuta Type
                   

Watches & Warnings

There are currently no watches in effect.